sensor_id;sensor_type;location;lat;lon;timestamp;P1;durP1;ratioP1;P2;durP2;ratioP2
71969;SDS011;59838;52.152;5.436;2024-01-06T00:00:01;7.07;;;4.30;;
71969;SDS011;59838;52.152;5.436;2024-01-06T00:02:28;7.25;;;3.47;;
71969;SDS011;59838;52.152;5.436;2024-01-06T00:04:54;5.38;;;3.70;;
71969;SDS011;59838;52.152;5.436;2024-01-06T00:07:21;6.70;;;3.65;;
71969;SDS011;59838;52.152;5.436;2024-01-06T00:09:47;7.75;;;3.42;;
71969;SDS011;59838;52.152;5.436;2024-01-06T00:12:14;5.23;;;3.17;;
71969;SDS011;59838;52.152;5.436;2024-01-06T00:14:41;5.80;;;3.40;;
71969;SDS011;59838;52.152;5.436;2024-01-06T00:17:10;6.05;;;3.17;;
71969;SDS011;59838;52.152;5.436;2024-01-06T00:19:36;5.70;;;3.55;;
71969;SDS011;59838;52.152;5.436;2024-01-06T00:22:03;5.20;;;3.33;;
71969;SDS011;59838;52.152;5.436;2024-01-06T00:24:29;5.17;;;3.17;;
71969;SDS011;59838;52.152;5.436;2024-01-06T00:26:56;4.97;;;2.35;;
71969;SDS011;59838;52.152;5.436;2024-01-06T00:29:22;4.10;;;2.38;;
71969;SDS011;59838;52.152;5.436;2024-01-06T00:31:49;3.20;;;2.13;;
71969;SDS011;59838;52.152;5.436;2024-01-06T00:34:15;3.47;;;1.77;;
71969;SDS011;59838;52.152;5.436;2024-01-06T00:36:42;3.93;;;1.90;;
71969;SDS011;59838;52.152;5.436;2024-01-06T00:39:08;5.28;;;2.47;;
71969;SDS011;59838;52.152;5.436;2024-01-06T00:41:35;5.55;;;3.22;;
71969;SDS011;59838;52.152;5.436;2024-01-06T00:44:01;4.95;;;2.50;;
71969;SDS011;59838;52.152;5.436;2024-01-06T00:46:28;6.30;;;3.63;;
71969;SDS011;59838;52.152;5.436;2024-01-06T00:48:54;5.70;;;3.47;;
71969;SDS011;59838;52.152;5.436;2024-01-06T00:51:21;4.88;;;3.13;;
71969;SDS011;59838;52.152;5.436;2024-01-06T00:53:48;6.97;;;3.85;;
71969;SDS011;59838;52.152;5.436;2024-01-06T00:56:14;7.85;;;3.67;;
71969;SDS011;59838;52.152;5.436;2024-01-06T00:58:41;7.85;;;4.18;;
71969;SDS011;59838;52.152;5.436;2024-01-06T01:01:07;6.10;;;3.57;;
71969;SDS011;59838;52.152;5.436;2024-01-06T01:03:34;7.70;;;4.05;;
71969;SDS011;59838;52.152;5.436;2024-01-06T01:06:00;6.22;;;3.85;;
71969;SDS011;59838;52.152;5.436;2024-01-06T01:08:27;6.25;;;4.13;;
71969;SDS011;59838;52.152;5.436;2024-01-06T01:10:54;6.15;;;4.13;;
71969;SDS011;59838;52.152;5.436;2024-01-06T01:13:20;5.07;;;2.97;;
71969;SDS011;59838;52.152;5.436;2024-01-06T01:15:47;7.68;;;4.10;;
71969;SDS011;59838;52.152;5.436;2024-01-06T01:18:13;6.22;;;3.70;;
71969;SDS011;59838;52.152;5.436;2024-01-06T01:20:40;6.57;;;3.30;;
71969;SDS011;59838;52.152;5.436;2024-01-06T01:23:10;4.45;;;3.15;;
71969;SDS011;59838;52.152;5.436;2024-01-06T01:25:36;6.07;;;3.43;;
71969;SDS011;59838;52.152;5.436;2024-01-06T01:28:02;5.38;;;3.63;;
71969;SDS011;59838;52.152;5.436;2024-01-06T01:30:29;6.57;;;3.80;;
71969;SDS011;59838;52.152;5.436;2024-01-06T01:32:56;6.35;;;3.80;;
71969;SDS011;59838;52.152;5.436;2024-01-06T01:35:22;5.47;;;3.33;;
71969;SDS011;59838;52.152;5.436;2024-01-06T01:37:49;5.30;;;3.53;;
71969;SDS011;59838;52.152;5.436;2024-01-06T01:40:15;6.30;;;3.45;;
71969;SDS011;59838;52.152;5.436;2024-01-06T01:42:42;5.40;;;3.25;;
71969;SDS011;59838;52.152;5.436;2024-01-06T01:45:09;5.50;;;3.53;;
71969;SDS011;59838;52.152;5.436;2024-01-06T01:47:38;5.53;;;3.88;;
71969;SDS011;59838;52.152;5.436;2024-01-06T01:50:06;6.10;;;3.83;;
71969;SDS011;59838;52.152;5.436;2024-01-06T01:52:35;5.60;;;3.15;;
71969;SDS011;59838;52.152;5.436;2024-01-06T01:55:02;6.75;;;4.30;;
71969;SDS011;59838;52.152;5.436;2024-01-06T01:57:29;7.57;;;4.00;;
71969;SDS011;59838;52.152;5.436;2024-01-06T01:59:55;8.05;;;3.83;;
71969;SDS011;59838;52.152;5.436;2024-01-06T02:02:23;8.70;;;4.03;;
71969;SDS011;59838;52.152;5.436;2024-01-06T02:04:49;6.32;;;3.55;;
71969;SDS011;59838;52.152;5.436;2024-01-06T02:07:16;4.82;;;3.28;;
71969;SDS011;59838;52.152;5.436;2024-01-06T02:09:43;4.68;;;3.28;;
71969;SDS011;59838;52.152;5.436;2024-01-06T02:12:09;4.63;;;2.88;;
71969;SDS011;59838;52.152;5.436;2024-01-06T02:14:36;4.17;;;2.63;;
71969;SDS011;59838;52.152;5.436;2024-01-06T02:17:02;5.88;;;2.92;;
71969;SDS011;59838;52.152;5.436;2024-01-06T02:19:29;5.35;;;2.70;;
71969;SDS011;59838;52.152;5.436;2024-01-06T02:21:56;4.53;;;2.13;;
71969;SDS011;59838;52.152;5.436;2024-01-06T02:24:22;5.18;;;2.90;;
71969;SDS011;59838;52.152;5.436;2024-01-06T02:26:48;5.03;;;3.07;;
71969;SDS011;59838;52.152;5.436;2024-01-06T02:29:15;9.95;;;2.58;;
71969;SDS011;59838;52.152;5.436;2024-01-06T02:31:41;9.77;;;3.22;;
71969;SDS011;59838;52.152;5.436;2024-01-06T02:34:08;6.00;;;2.40;;
71969;SDS011;59838;52.152;5.436;2024-01-06T02:36:35;4.20;;;3.03;;
71969;SDS011;59838;52.152;5.436;2024-01-06T02:39:01;4.43;;;2.77;;
71969;SDS011;59838;52.152;5.436;2024-01-06T02:41:28;5.70;;;3.65;;
71969;SDS011;59838;52.152;5.436;2024-01-06T02:43:54;6.18;;;4.13;;
71969;SDS011;59838;52.152;5.436;2024-01-06T02:46:22;6.15;;;3.85;;
71969;SDS011;59838;52.152;5.436;2024-01-06T02:48:49;6.75;;;4.43;;
71969;SDS011;59838;52.152;5.436;2024-01-06T02:51:15;8.57;;;4.63;;
71969;SDS011;59838;52.152;5.436;2024-01-06T02:53:42;8.40;;;4.55;;
71969;SDS011;59838;52.152;5.436;2024-01-06T02:56:12;8.80;;;4.72;;
71969;SDS011;59838;52.152;5.436;2024-01-06T02:58:38;8.40;;;5.43;;
71969;SDS011;59838;52.152;5.436;2024-01-06T03:01:05;8.93;;;5.20;;
71969;SDS011;59838;52.152;5.436;2024-01-06T03:03:32;10.73;;;4.70;;
71969;SDS011;59838;52.152;5.436;2024-01-06T03:05:58;9.52;;;5.60;;
71969;SDS011;59838;52.152;5.436;2024-01-06T03:08:26;9.63;;;5.35;;
71969;SDS011;59838;52.152;5.436;2024-01-06T03:10:53;9.40;;;4.82;;
71969;SDS011;59838;52.152;5.436;2024-01-06T03:13:19;8.13;;;4.40;;
71969;SDS011;59838;52.152;5.436;2024-01-06T03:15:45;8.57;;;4.60;;
71969;SDS011;59838;52.152;5.436;2024-01-06T03:18:12;8.48;;;5.03;;
71969;SDS011;59838;52.152;5.436;2024-01-06T03:20:39;7.82;;;4.22;;
71969;SDS011;59838;52.152;5.436;2024-01-06T03:23:05;7.15;;;4.55;;
71969;SDS011;59838;52.152;5.436;2024-01-06T03:25:32;7.70;;;4.10;;
71969;SDS011;59838;52.152;5.436;2024-01-06T03:27:59;7.60;;;4.40;;
71969;SDS011;59838;52.152;5.436;2024-01-06T03:30:25;8.88;;;4.68;;
71969;SDS011;59838;52.152;5.436;2024-01-06T03:32:52;9.48;;;4.70;;
71969;SDS011;59838;52.152;5.436;2024-01-06T03:35:18;7.75;;;4.13;;
71969;SDS011;59838;52.152;5.436;2024-01-06T03:37:45;10.10;;;4.65;;
71969;SDS011;59838;52.152;5.436;2024-01-06T03:40:11;9.27;;;4.40;;
71969;SDS011;59838;52.152;5.436;2024-01-06T03:42:38;8.38;;;4.47;;
71969;SDS011;59838;52.152;5.436;2024-01-06T03:45:05;6.55;;;4.15;;
71969;SDS011;59838;52.152;5.436;2024-01-06T03:47:32;7.03;;;3.72;;
71969;SDS011;59838;52.152;5.436;2024-01-06T03:49:58;7.07;;;3.75;;
71969;SDS011;59838;52.152;5.436;2024-01-06T03:52:24;6.60;;;3.97;;
71969;SDS011;59838;52.152;5.436;2024-01-06T03:54:51;7.68;;;4.13;;
71969;SDS011;59838;52.152;5.436;2024-01-06T03:57:17;8.80;;;5.13;;
71969;SDS011;59838;52.152;5.436;2024-01-06T03:59:44;9.70;;;5.40;;
71969;SDS011;59838;52.152;5.436;2024-01-06T04:02:11;8.13;;;4.18;;
71969;SDS011;59838;52.152;5.436;2024-01-06T04:04:37;6.60;;;3.63;;
71969;SDS011;59838;52.152;5.436;2024-01-06T04:07:04;5.65;;;3.70;;
71969;SDS011;59838;52.152;5.436;2024-01-06T04:09:32;7.90;;;4.00;;
71969;SDS011;59838;52.152;5.436;2024-01-06T04:11:58;6.28;;;3.92;;
71969;SDS011;59838;52.152;5.436;2024-01-06T04:14:27;7.75;;;3.80;;
71969;SDS011;59838;52.152;5.436;2024-01-06T04:16:53;4.97;;;3.50;;
71969;SDS011;59838;52.152;5.436;2024-01-06T04:19:21;5.43;;;3.35;;
71969;SDS011;59838;52.152;5.436;2024-01-06T04:21:48;5.60;;;3.55;;
71969;SDS011;59838;52.152;5.436;2024-01-06T04:24:15;6.80;;;3.35;;
71969;SDS011;59838;52.152;5.436;2024-01-06T04:26:41;5.03;;;3.65;;
71969;SDS011;59838;52.152;5.436;2024-01-06T04:29:11;5.97;;;3.53;;
71969;SDS011;59838;52.152;5.436;2024-01-06T04:31:38;7.07;;;3.35;;
71969;SDS011;59838;52.152;5.436;2024-01-06T04:34:05;5.60;;;2.85;;
71969;SDS011;59838;52.152;5.436;2024-01-06T04:36:32;3.53;;;2.33;;
71969;SDS011;59838;52.152;5.436;2024-01-06T04:38:59;4.20;;;2.70;;
71969;SDS011;59838;52.152;5.436;2024-01-06T04:41:26;6.30;;;4.03;;
71969;SDS011;59838;52.152;5.436;2024-01-06T04:43:52;6.40;;;4.15;;
71969;SDS011;59838;52.152;5.436;2024-01-06T04:46:18;6.63;;;3.80;;
71969;SDS011;59838;52.152;5.436;2024-01-06T04:48:46;5.00;;;3.47;;
71969;SDS011;59838;52.152;5.436;2024-01-06T04:51:13;5.70;;;3.47;;
71969;SDS011;59838;52.152;5.436;2024-01-06T04:53:40;8.53;;;3.97;;
71969;SDS011;59838;52.152;5.436;2024-01-06T04:56:06;6.25;;;3.72;;
71969;SDS011;59838;52.152;5.436;2024-01-06T04:58:33;8.70;;;3.40;;
71969;SDS011;59838;52.152;5.436;2024-01-06T05:01:01;3.40;;;2.60;;
71969;SDS011;59838;52.152;5.436;2024-01-06T05:03:28;6.15;;;3.30;;
71969;SDS011;59838;52.152;5.436;2024-01-06T05:05:55;5.03;;;3.23;;
71969;SDS011;59838;52.152;5.436;2024-01-06T05:08:22;5.15;;;3.35;;
71969;SDS011;59838;52.152;5.436;2024-01-06T05:10:49;8.57;;;3.42;;
71969;SDS011;59838;52.152;5.436;2024-01-06T05:13:15;6.55;;;3.35;;
71969;SDS011;59838;52.152;5.436;2024-01-06T05:15:43;5.25;;;3.20;;
71969;SDS011;59838;52.152;5.436;2024-01-06T05:18:10;5.50;;;3.60;;
71969;SDS011;59838;52.152;5.436;2024-01-06T05:20:36;5.32;;;2.58;;
71969;SDS011;59838;52.152;5.436;2024-01-06T05:23:03;6.70;;;3.42;;
71969;SDS011;59838;52.152;5.436;2024-01-06T05:25:30;5.28;;;3.50;;
71969;SDS011;59838;52.152;5.436;2024-01-06T05:27:56;4.97;;;2.63;;
71969;SDS011;59838;52.152;5.436;2024-01-06T05:30:23;4.73;;;2.93;;
71969;SDS011;59838;52.152;5.436;2024-01-06T05:32:49;6.35;;;3.03;;
71969;SDS011;59838;52.152;5.436;2024-01-06T05:35:16;6.65;;;3.72;;
71969;SDS011;59838;52.152;5.436;2024-01-06T05:37:43;5.57;;;3.83;;
71969;SDS011;59838;52.152;5.436;2024-01-06T05:40:09;6.97;;;4.13;;
71969;SDS011;59838;52.152;5.436;2024-01-06T05:42:37;6.60;;;3.47;;
71969;SDS011;59838;52.152;5.436;2024-01-06T05:45:04;4.70;;;3.38;;
71969;SDS011;59838;52.152;5.436;2024-01-06T05:47:31;5.80;;;3.08;;
71969;SDS011;59838;52.152;5.436;2024-01-06T05:49:58;5.35;;;3.55;;
71969;SDS011;59838;52.152;5.436;2024-01-06T05:52:25;4.22;;;3.20;;
71969;SDS011;59838;52.152;5.436;2024-01-06T05:54:51;6.30;;;3.90;;
71969;SDS011;59838;52.152;5.436;2024-01-06T05:57:18;14.25;;;4.35;;
71969;SDS011;59838;52.152;5.436;2024-01-06T05:59:44;6.15;;;3.65;;
71969;SDS011;59838;52.152;5.436;2024-01-06T06:02:12;6.68;;;4.18;;
71969;SDS011;59838;52.152;5.436;2024-01-06T06:04:38;5.65;;;3.90;;
71969;SDS011;59838;52.152;5.436;2024-01-06T06:07:05;6.10;;;4.03;;
71969;SDS011;59838;52.152;5.436;2024-01-06T06:09:32;7.00;;;3.78;;
71969;SDS011;59838;52.152;5.436;2024-01-06T06:12:01;7.03;;;3.83;;
71969;SDS011;59838;52.152;5.436;2024-01-06T06:14:27;8.35;;;3.58;;
71969;SDS011;59838;52.152;5.436;2024-01-06T06:16:55;8.77;;;3.35;;
71969;SDS011;59838;52.152;5.436;2024-01-06T06:19:23;10.53;;;3.40;;
71969;SDS011;59838;52.152;5.436;2024-01-06T06:21:50;8.77;;;3.70;;
71969;SDS011;59838;52.152;5.436;2024-01-06T06:24:16;7.40;;;4.50;;
71969;SDS011;59838;52.152;5.436;2024-01-06T06:26:43;5.47;;;3.22;;
71969;SDS011;59838;52.152;5.436;2024-01-06T06:29:09;6.00;;;3.80;;
71969;SDS011;59838;52.152;5.436;2024-01-06T06:31:35;7.93;;;3.83;;
71969;SDS011;59838;52.152;5.436;2024-01-06T06:34:02;12.25;;;4.32;;
71969;SDS011;59838;52.152;5.436;2024-01-06T06:36:34;7.35;;;4.80;;
71969;SDS011;59838;52.152;5.436;2024-01-06T06:39:00;8.55;;;3.95;;
71969;SDS011;59838;52.152;5.436;2024-01-06T06:41:27;8.35;;;4.22;;
71969;SDS011;59838;52.152;5.436;2024-01-06T06:43:54;7.97;;;4.07;;
71969;SDS011;59838;52.152;5.436;2024-01-06T06:46:20;8.48;;;3.72;;
71969;SDS011;59838;52.152;5.436;2024-01-06T06:48:46;7.32;;;3.70;;
71969;SDS011;59838;52.152;5.436;2024-01-06T06:51:13;7.93;;;4.22;;
71969;SDS011;59838;52.152;5.436;2024-01-06T06:53:40;6.13;;;3.63;;
71969;SDS011;59838;52.152;5.436;2024-01-06T06:56:07;6.83;;;3.63;;
71969;SDS011;59838;52.152;5.436;2024-01-06T06:58:33;6.60;;;3.65;;
71969;SDS011;59838;52.152;5.436;2024-01-06T07:00:59;5.97;;;3.20;;
71969;SDS011;59838;52.152;5.436;2024-01-06T07:03:27;6.70;;;3.40;;
71969;SDS011;59838;52.152;5.436;2024-01-06T07:05:53;6.05;;;3.35;;
71969;SDS011;59838;52.152;5.436;2024-01-06T07:08:20;7.30;;;3.57;;
71969;SDS011;59838;52.152;5.436;2024-01-06T07:10:46;6.60;;;4.18;;
71969;SDS011;59838;52.152;5.436;2024-01-06T07:13:13;5.95;;;3.50;;
71969;SDS011;59838;52.152;5.436;2024-01-06T07:15:40;6.75;;;3.10;;
71969;SDS011;59838;52.152;5.436;2024-01-06T07:18:07;5.65;;;3.42;;
71969;SDS011;59838;52.152;5.436;2024-01-06T07:20:34;3.97;;;2.67;;
71969;SDS011;59838;52.152;5.436;2024-01-06T07:23:00;5.32;;;2.63;;
71969;SDS011;59838;52.152;5.436;2024-01-06T07:25:29;6.75;;;3.10;;
71969;SDS011;59838;52.152;5.436;2024-01-06T07:27:56;3.90;;;3.00;;
71969;SDS011;59838;52.152;5.436;2024-01-06T07:30:23;4.15;;;2.42;;
71969;SDS011;59838;52.152;5.436;2024-01-06T07:32:50;7.40;;;3.23;;
71969;SDS011;59838;52.152;5.436;2024-01-06T07:35:18;4.82;;;2.83;;
71969;SDS011;59838;52.152;5.436;2024-01-06T07:37:44;5.18;;;3.05;;
71969;SDS011;59838;52.152;5.436;2024-01-06T07:40:11;7.60;;;3.28;;
71969;SDS011;59838;52.152;5.436;2024-01-06T07:42:43;4.93;;;2.80;;
71969;SDS011;59838;52.152;5.436;2024-01-06T07:45:10;4.13;;;2.43;;
71969;SDS011;59838;52.152;5.436;2024-01-06T07:47:36;5.20;;;2.55;;
71969;SDS011;59838;52.152;5.436;2024-01-06T07:50:04;6.65;;;2.30;;
71969;SDS011;59838;52.152;5.436;2024-01-06T07:52:31;4.20;;;2.58;;
71969;SDS011;59838;52.152;5.436;2024-01-06T07:54:59;5.20;;;3.30;;
71969;SDS011;59838;52.152;5.436;2024-01-06T07:57:25;6.17;;;2.80;;
71969;SDS011;59838;52.152;5.436;2024-01-06T07:59:52;6.45;;;2.45;;
71969;SDS011;59838;52.152;5.436;2024-01-06T08:02:18;5.47;;;2.83;;
71969;SDS011;59838;52.152;5.436;2024-01-06T08:04:45;4.72;;;2.70;;
71969;SDS011;59838;52.152;5.436;2024-01-06T08:07:11;8.18;;;2.90;;
71969;SDS011;59838;52.152;5.436;2024-01-06T08:09:39;3.43;;;2.47;;
71969;SDS011;59838;52.152;5.436;2024-01-06T08:12:07;3.42;;;2.13;;
71969;SDS011;59838;52.152;5.436;2024-01-06T08:14:33;3.40;;;2.30;;
71969;SDS011;59838;52.152;5.436;2024-01-06T08:17:00;4.57;;;2.60;;
71969;SDS011;59838;52.152;5.436;2024-01-06T08:19:26;4.43;;;2.38;;
71969;SDS011;59838;52.152;5.436;2024-01-06T08:21:54;5.97;;;2.93;;
71969;SDS011;59838;52.152;5.436;2024-01-06T08:24:21;7.28;;;3.05;;
71969;SDS011;59838;52.152;5.436;2024-01-06T08:26:47;5.30;;;2.45;;
71969;SDS011;59838;52.152;5.436;2024-01-06T08:29:14;14.95;;;3.63;;
71969;SDS011;59838;52.152;5.436;2024-01-06T08:31:42;7.40;;;3.00;;
71969;SDS011;59838;52.152;5.436;2024-01-06T08:34:09;4.97;;;2.33;;
71969;SDS011;59838;52.152;5.436;2024-01-06T08:36:36;5.25;;;2.60;;
71969;SDS011;59838;52.152;5.436;2024-01-06T08:39:02;6.18;;;2.40;;
71969;SDS011;59838;52.152;5.436;2024-01-06T08:41:29;5.63;;;2.53;;
71969;SDS011;59838;52.152;5.436;2024-01-06T08:43:55;4.32;;;2.78;;
71969;SDS011;59838;52.152;5.436;2024-01-06T08:46:22;3.93;;;2.63;;
71969;SDS011;59838;52.152;5.436;2024-01-06T08:48:48;4.03;;;2.40;;
71969;SDS011;59838;52.152;5.436;2024-01-06T08:51:15;4.80;;;2.42;;
71969;SDS011;59838;52.152;5.436;2024-01-06T08:53:42;4.43;;;2.55;;
71969;SDS011;59838;52.152;5.436;2024-01-06T08:56:08;5.30;;;2.60;;
71969;SDS011;59838;52.152;5.436;2024-01-06T08:58:35;5.77;;;3.50;;
71969;SDS011;59838;52.152;5.436;2024-01-06T09:01:01;5.30;;;3.00;;
71969;SDS011;59838;52.152;5.436;2024-01-06T09:03:28;5.68;;;3.20;;
71969;SDS011;59838;52.152;5.436;2024-01-06T09:05:55;7.00;;;3.63;;
71969;SDS011;59838;52.152;5.436;2024-01-06T09:08:22;4.93;;;3.17;;
71969;SDS011;59838;52.152;5.436;2024-01-06T09:10:50;7.97;;;3.13;;
71969;SDS011;59838;52.152;5.436;2024-01-06T09:13:21;6.63;;;2.80;;
71969;SDS011;59838;52.152;5.436;2024-01-06T09:15:50;6.63;;;2.60;;
71969;SDS011;59838;52.152;5.436;2024-01-06T09:18:20;6.10;;;2.65;;
71969;SDS011;59838;52.152;5.436;2024-01-06T09:20:46;5.20;;;2.70;;
71969;SDS011;59838;52.152;5.436;2024-01-06T09:23:16;5.97;;;2.87;;
71969;SDS011;59838;52.152;5.436;2024-01-06T09:25:43;5.20;;;2.58;;
71969;SDS011;59838;52.152;5.436;2024-01-06T09:28:09;4.03;;;2.55;;
71969;SDS011;59838;52.152;5.436;2024-01-06T09:30:37;5.50;;;2.40;;
71969;SDS011;59838;52.152;5.436;2024-01-06T09:33:04;4.78;;;2.72;;
71969;SDS011;59838;52.152;5.436;2024-01-06T09:35:30;6.87;;;2.77;;
71969;SDS011;59838;52.152;5.436;2024-01-06T09:37:57;4.45;;;2.75;;
71969;SDS011;59838;52.152;5.436;2024-01-06T09:40:23;4.53;;;2.22;;
71969;SDS011;59838;52.152;5.436;2024-01-06T09:42:50;5.00;;;2.72;;
71969;SDS011;59838;52.152;5.436;2024-01-06T09:45:18;5.80;;;2.60;;
71969;SDS011;59838;52.152;5.436;2024-01-06T09:47:45;4.00;;;2.27;;
71969;SDS011;59838;52.152;5.436;2024-01-06T09:50:19;4.63;;;2.65;;
71969;SDS011;59838;52.152;5.436;2024-01-06T09:52:46;5.15;;;2.42;;
71969;SDS011;59838;52.152;5.436;2024-01-06T09:55:23;5.50;;;1.58;;
71969;SDS011;59838;52.152;5.436;2024-01-06T09:57:54;4.80;;;2.08;;
71969;SDS011;59838;52.152;5.436;2024-01-06T10:00:21;4.47;;;2.33;;
71969;SDS011;59838;52.152;5.436;2024-01-06T10:02:48;4.05;;;2.42;;
71969;SDS011;59838;52.152;5.436;2024-01-06T10:05:15;7.85;;;3.28;;
71969;SDS011;59838;52.152;5.436;2024-01-06T10:07:44;3.08;;;2.25;;
71969;SDS011;59838;52.152;5.436;2024-01-06T10:10:11;6.63;;;2.60;;
71969;SDS011;59838;52.152;5.436;2024-01-06T10:12:39;4.20;;;2.63;;
71969;SDS011;59838;52.152;5.436;2024-01-06T10:15:07;3.53;;;2.58;;
71969;SDS011;59838;52.152;5.436;2024-01-06T10:17:38;4.47;;;2.72;;
71969;SDS011;59838;52.152;5.436;2024-01-06T10:20:07;3.10;;;2.20;;
71969;SDS011;59838;52.152;5.436;2024-01-06T10:22:40;3.20;;;2.40;;
71969;SDS011;59838;52.152;5.436;2024-01-06T10:25:08;3.17;;;2.17;;
71969;SDS011;59838;52.152;5.436;2024-01-06T10:27:35;3.63;;;1.77;;
71969;SDS011;59838;52.152;5.436;2024-01-06T10:30:03;4.90;;;2.70;;
71969;SDS011;59838;52.152;5.436;2024-01-06T10:32:34;6.35;;;2.55;;
71969;SDS011;59838;52.152;5.436;2024-01-06T10:35:03;4.82;;;2.65;;
71969;SDS011;59838;52.152;5.436;2024-01-06T10:37:32;6.00;;;2.90;;
71969;SDS011;59838;52.152;5.436;2024-01-06T10:40:08;4.95;;;3.22;;
71969;SDS011;59838;52.152;5.436;2024-01-06T10:42:36;5.13;;;2.90;;
71969;SDS011;59838;52.152;5.436;2024-01-06T10:45:09;5.95;;;2.55;;
71969;SDS011;59838;52.152;5.436;2024-01-06T10:47:37;4.75;;;2.88;;
71969;SDS011;59838;52.152;5.436;2024-01-06T10:50:04;5.53;;;3.27;;
71969;SDS011;59838;52.152;5.436;2024-01-06T10:52:32;4.82;;;2.40;;
71969;SDS011;59838;52.152;5.436;2024-01-06T10:54:59;3.92;;;2.30;;
71969;SDS011;59838;52.152;5.436;2024-01-06T10:57:25;5.57;;;3.03;;
71969;SDS011;59838;52.152;5.436;2024-01-06T10:59:55;5.30;;;2.90;;
71969;SDS011;59838;52.152;5.436;2024-01-06T11:02:24;4.50;;;3.13;;
71969;SDS011;59838;52.152;5.436;2024-01-06T11:04:52;3.92;;;2.78;;
71969;SDS011;59838;52.152;5.436;2024-01-06T11:07:19;5.63;;;2.80;;
71969;SDS011;59838;52.152;5.436;2024-01-06T11:09:58;7.40;;;2.53;;
71969;SDS011;59838;52.152;5.436;2024-01-06T11:12:31;4.18;;;2.38;;
71969;SDS011;59838;52.152;5.436;2024-01-06T11:14:59;4.17;;;2.90;;
71969;SDS011;59838;52.152;5.436;2024-01-06T11:20:22;4.75;;;3.17;;
71969;SDS011;59838;52.152;5.436;2024-01-06T11:22:50;4.40;;;2.05;;
71969;SDS011;59838;52.152;5.436;2024-01-06T11:25:17;5.03;;;2.47;;
71969;SDS011;59838;52.152;5.436;2024-01-06T11:27:49;5.60;;;1.73;;
71969;SDS011;59838;52.152;5.436;2024-01-06T11:30:23;3.22;;;1.38;;
71969;SDS011;59838;52.152;5.436;2024-01-06T11:32:52;4.40;;;2.45;;
71969;SDS011;59838;52.152;5.436;2024-01-06T11:35:20;3.92;;;2.47;;
71969;SDS011;59838;52.152;5.436;2024-01-06T11:43:00;4.93;;;2.42;;
71969;SDS011;59838;52.152;5.436;2024-01-06T11:45:31;4.13;;;2.13;;
71969;SDS011;59838;52.152;5.436;2024-01-06T11:47:59;5.18;;;2.25;;
71969;SDS011;59838;52.152;5.436;2024-01-06T11:50:29;6.60;;;2.38;;
71969;SDS011;59838;52.152;5.436;2024-01-06T11:52:58;5.37;;;1.97;;
71969;SDS011;59838;52.152;5.436;2024-01-06T11:55:26;4.15;;;2.15;;
71969;SDS011;59838;52.152;5.436;2024-01-06T11:57:58;3.92;;;2.58;;
71969;SDS011;59838;52.152;5.436;2024-01-06T12:00:30;5.40;;;2.22;;
71969;SDS011;59838;52.152;5.436;2024-01-06T12:02:57;7.40;;;2.95;;
71969;SDS011;59838;52.152;5.436;2024-01-06T12:05:25;3.63;;;2.23;;
71969;SDS011;59838;52.152;5.436;2024-01-06T12:07:56;4.15;;;2.50;;
71969;SDS011;59838;52.152;5.436;2024-01-06T12:10:24;4.28;;;2.85;;
71969;SDS011;59838;52.152;5.436;2024-01-06T12:12:55;4.32;;;2.15;;
71969;SDS011;59838;52.152;5.436;2024-01-06T12:15:23;8.35;;;2.72;;
71969;SDS011;59838;52.152;5.436;2024-01-06T12:17:50;3.47;;;2.20;;
71969;SDS011;59838;52.152;5.436;2024-01-06T12:20:16;3.17;;;2.33;;
71969;SDS011;59838;52.152;5.436;2024-01-06T12:22:43;6.22;;;2.63;;
71969;SDS011;59838;52.152;5.436;2024-01-06T12:25:10;4.50;;;2.33;;
71969;SDS011;59838;52.152;5.436;2024-01-06T12:27:41;4.22;;;3.03;;
71969;SDS011;59838;52.152;5.436;2024-01-06T12:30:12;3.23;;;2.13;;
71969;SDS011;59838;52.152;5.436;2024-01-06T12:32:42;4.50;;;2.75;;
71969;SDS011;59838;52.152;5.436;2024-01-06T12:35:10;3.80;;;2.75;;
71969;SDS011;59838;52.152;5.436;2024-01-06T12:37:38;4.25;;;2.95;;
71969;SDS011;59838;52.152;5.436;2024-01-06T12:40:14;7.03;;;3.05;;
71969;SDS011;59838;52.152;5.436;2024-01-06T12:42:43;4.97;;;2.67;;
71969;SDS011;59838;52.152;5.436;2024-01-06T12:45:11;6.68;;;2.50;;
71969;SDS011;59838;52.152;5.436;2024-01-06T12:47:37;7.85;;;2.33;;
71969;SDS011;59838;52.152;5.436;2024-01-06T12:50:04;4.50;;;3.22;;
71969;SDS011;59838;52.152;5.436;2024-01-06T12:52:32;4.10;;;2.53;;
71969;SDS011;59838;52.152;5.436;2024-01-06T12:55:00;6.63;;;3.23;;
71969;SDS011;59838;52.152;5.436;2024-01-06T12:57:26;5.50;;;3.55;;
71969;SDS011;59838;52.152;5.436;2024-01-06T12:59:53;5.65;;;3.58;;
71969;SDS011;59838;52.152;5.436;2024-01-06T13:02:20;9.13;;;3.13;;
71969;SDS011;59838;52.152;5.436;2024-01-06T13:04:47;7.78;;;2.58;;
71969;SDS011;59838;52.152;5.436;2024-01-06T13:07:14;7.60;;;3.33;;
71969;SDS011;59838;52.152;5.436;2024-01-06T13:09:40;6.53;;;3.25;;
71969;SDS011;59838;52.152;5.436;2024-01-06T13:12:07;4.97;;;3.40;;
71969;SDS011;59838;52.152;5.436;2024-01-06T13:14:34;5.18;;;3.47;;
71969;SDS011;59838;52.152;5.436;2024-01-06T13:17:02;6.60;;;3.35;;
71969;SDS011;59838;52.152;5.436;2024-01-06T13:19:28;5.83;;;2.97;;
71969;SDS011;59838;52.152;5.436;2024-01-06T13:21:55;6.45;;;3.97;;
71969;SDS011;59838;52.152;5.436;2024-01-06T13:24:22;4.90;;;3.38;;
71969;SDS011;59838;52.152;5.436;2024-01-06T13:26:49;5.22;;;3.10;;
71969;SDS011;59838;52.152;5.436;2024-01-06T13:29:16;6.25;;;2.88;;
71969;SDS011;59838;52.152;5.436;2024-01-06T13:31:44;5.77;;;3.10;;
71969;SDS011;59838;52.152;5.436;2024-01-06T13:34:11;5.60;;;3.05;;
71969;SDS011;59838;52.152;5.436;2024-01-06T13:36:37;4.78;;;3.22;;
71969;SDS011;59838;52.152;5.436;2024-01-06T13:39:04;7.13;;;4.45;;
71969;SDS011;59838;52.152;5.436;2024-01-06T13:41:31;7.70;;;3.70;;
71969;SDS011;59838;52.152;5.436;2024-01-06T13:43:58;5.77;;;3.23;;
71969;SDS011;59838;52.152;5.436;2024-01-06T13:46:24;5.60;;;3.25;;
71969;SDS011;59838;52.152;5.436;2024-01-06T13:48:51;6.03;;;3.40;;
71969;SDS011;59838;52.152;5.436;2024-01-06T13:51:17;6.80;;;4.43;;
71969;SDS011;59838;52.152;5.436;2024-01-06T13:53:44;6.13;;;3.85;;
71969;SDS011;59838;52.152;5.436;2024-01-06T13:56:10;4.90;;;3.57;;
71969;SDS011;59838;52.152;5.436;2024-01-06T13:58:37;6.47;;;3.58;;
71969;SDS011;59838;52.152;5.436;2024-01-06T14:01:04;6.47;;;3.50;;
71969;SDS011;59838;52.152;5.436;2024-01-06T14:03:31;4.65;;;2.67;;
71969;SDS011;59838;52.152;5.436;2024-01-06T14:05:59;7.15;;;3.78;;
71969;SDS011;59838;52.152;5.436;2024-01-06T14:08:26;7.07;;;3.70;;
71969;SDS011;59838;52.152;5.436;2024-01-06T14:10:52;7.90;;;3.92;;
71969;SDS011;59838;52.152;5.436;2024-01-06T14:13:19;6.35;;;3.58;;
71969;SDS011;59838;52.152;5.436;2024-01-06T14:15:45;5.63;;;3.53;;
71969;SDS011;59838;52.152;5.436;2024-01-06T14:18:12;5.32;;;3.17;;
71969;SDS011;59838;52.152;5.436;2024-01-06T14:20:41;10.43;;;3.50;;
71969;SDS011;59838;52.152;5.436;2024-01-06T14:23:08;5.70;;;2.88;;
71969;SDS011;59838;52.152;5.436;2024-01-06T14:25:36;5.60;;;3.60;;
71969;SDS011;59838;52.152;5.436;2024-01-06T14:28:03;4.32;;;2.33;;
71969;SDS011;59838;52.152;5.436;2024-01-06T14:30:32;5.70;;;2.60;;
71969;SDS011;59838;52.152;5.436;2024-01-06T14:32:58;6.03;;;2.50;;
71969;SDS011;59838;52.152;5.436;2024-01-06T14:35:25;5.85;;;2.28;;
71969;SDS011;59838;52.152;5.436;2024-01-06T14:37:51;4.00;;;1.65;;
71969;SDS011;59838;52.152;5.436;2024-01-06T14:40:20;8.43;;;2.65;;
71969;SDS011;59838;52.152;5.436;2024-01-06T14:42:46;5.90;;;2.63;;
71969;SDS011;59838;52.152;5.436;2024-01-06T14:45:13;4.23;;;1.80;;
71969;SDS011;59838;52.152;5.436;2024-01-06T14:47:40;6.75;;;2.50;;
71969;SDS011;59838;52.152;5.436;2024-01-06T14:50:07;5.07;;;2.97;;
71969;SDS011;59838;52.152;5.436;2024-01-06T14:52:33;3.33;;;2.17;;
71969;SDS011;59838;52.152;5.436;2024-01-06T14:55:00;3.13;;;2.17;;